ADDS METAR Data INFO
IDs: Format: Raw Decoded Include TAF

Data at: 1016 UTC 14 Dec 2017

KALO 140954Z AUTO 02008KT 10SM OVC022 M09/M11 A2998 RMK AO2 SLP165 T10891111
KALO 140854Z AUTO 01004KT 10SM OVC024 M07/M11 A2999 RMK AO2 SLP167 T10721106 51017
KALO 140754Z AUTO 34006KT 10SM OVC025 M07/M10 A2998 RMK AO2 SLP165 T10671100
KALO 140654Z AUTO 35007KT 10SM BKN024 M08/M11 A2996 RMK AO2 SLP156 T10781111
KALO 140554Z AUTO 03009KT 10SM OVC025 M06/M10 A2994 RMK AO2 SLP149 T10611100 11011 21061 400561061 51027
KALO 140454Z AUTO 36009KT 10SM OVC024 M04/M09 A2992 RMK AO2 SLP140 T10441094
KALO 140354Z AUTO 36016KT 10SM OVC022 M04/M09 A2988 RMK AO2 SLP127 T10391089
KALO 140254Z AUTO 36017G26KT 10SM OVC022 M04/M08 A2986 RMK AO2 PK WND 35028/0201 SLP118 T10391083 51041
KALO 140154Z 35016G25KT 10SM BKN024 OVC050 M03/M08 A2981 RMK AO2 PK WND 33028/0134 SLP104 T10331083
KALO 140054Z 33018G34KT 10SM OVC020 M02/M07 A2978 RMK AO2 PK WND 32034/0046 SLP092 T10221067
KALO 132354Z 33022G31KT 10SM OVC018 M01/M05 A2973 RMK AO2 PK WND 33037/2322 SLP077 T10111050 10028 21011 53049
KALO 132254Z 32020G35KT 10SM OVC022 M01/M06 A2968 RMK AO2 PK WND 33035/2250 SLP058 T10061056
KALO 132154Z 33025G33KT 10SM OVC019 00/M04 A2962 RMK AO2 PK WND 33033/2154 SLP041 T00001044
KALO 132054Z 31017G35KT 10SM OVC016 01/M03 A2958 RMK AO2 PK WND 32039/2016 SLP026 T00061033 53038
KALO 132024Z 32021G39KT 10SM OVC015 01/M03 A2956 RMK AO2 PK WND 32039/2016 T00061028
KALO 131954Z 32026G34KT 9SM OVC014 01/M03 A2954 RMK AO2 PK WND 31037/1925 SLP011 T00111028
KALO 131938Z 31024G35KT 9SM OVC014 01/M02 A2953 RMK AO2 PK WND 31037/1925 T00111022
KALO 131854Z 31021G35KT 9SM OVC015 02/M02 A2950 RMK AO2 PK WND 31038/1757 SLP999 T00171022
KALO 131754Z 31024G35KT 10SM OVC016 03/M02 A2947 RMK AO2 PK WND 32040/1658 SLP987 T00281017 10056 20000 53036
KALO 131654Z 33030G43KT 10SM OVC021 03/M02 A2943 RMK AO2 PK WND 33043/1652 SLP975 T00331017
KALO 131603Z 31030G37KT 10SM BKN028 BKN050 OVC065 04/M02 A2939 RMK AO2 PK WND 31037/1602 T00441017
KALO 131554Z 30023G34KT 10SM BKN030 BKN045 OVC065 04/M02 A2939 RMK AO2 PK WND 30038/1508 SLP960 T00441017
KALO 131454Z 29017G31KT 10SM BKN100 05/M03 A2936 RMK AO2 PK WND 29031/1445 SLP949 T00501028 56016
KALO 131354Z 27013KT 10SM OVC110 03/M04 A2936 RMK AO2 SLP951 T00331044
KALO 131254Z 23008KT 10SM CLR 01/M04 A2936 RMK AO2 SLP952 T00061044
KALO 131154Z 22012KT 10SM CLR 00/M05 A2941 RMK AO2 SLP968 T00001050 10000 21033 56055
KALO 131054Z 19007KT 10SM CLR M01/M06 A2945 RMK AO2 SLP982 T10111056
KALO 130954Z 19010KT 10SM CLR M01/M06 A2950 RMK AO2 PRESFR SLP999 T10111056
KALO 130854Z 19010KT 10SM CLR M02/M06 A2957 RMK AO2 SLP024 T10171056 56054
KALO 130754Z 18012KT 10SM CLR M02/M06 A2960 RMK AO2 SLP035 T10221061
KALO 130654Z 16005KT 10SM CLR M03/M07 A2968 RMK AO2 SLP062 T10331072
KALO 130554Z 18007KT 10SM CLR M03/M08 A2974 RMK AO2 SLP082 T10331078 11022 21050 410221122 58052
KALO 130454Z 19009KT 10SM SCT080 M03/M08 A2980 RMK AO2 SLP103 T10281083
KALO 130354Z 20008KT 10SM OVC085 M02/M09 A2985 RMK AO2 PRESFR SLP123 T10221089
KALO 130254Z 19009KT 10SM BKN080 OVC095 M03/M10 A2990 RMK AO2 SLP138 T10281100 58033
KALO 130154Z 18009KT 10SM SCT036 BKN100 M03/M11 A2993 RMK AO2 SLP151 T10331106
KALO 130054Z 18009KT 10SM OVC031 M03/M11 A2997 RMK AO2 SLP163 T10331111
KALO 122354Z 19006KT 10SM BKN033 M05/M11 A2999 RMK AO2 SLP173 T10501111 11028 21061 56025
KALO 122254Z 20007KT 10SM BKN050 M04/M12 A3001 RMK AO2 SLP176 T10391122